Ararat, North Carolina
Current Conditions -  °F | °C
As of 11:15 AM on Thursday 29 Jan 2015 (Local Time) from KMWK Reporting Station
Clear Clear  
Wind Chill: 36°   Ceiling: Unl
Heat Index: 40°   Visibility: 10mi
Dew Point: 23°   Wind: 6mph
Humidity: 50%   Direction: 200°SSW
Pressure: 30.25"   Gusts: NA
Location:  36.4°N, 80.56°W
Report Text: KMWK 291615Z AUTO 20005KT 10SM CLR 05/M05 A3025 RMK AO2 T00461050
Loading
Personal Weather Stations






























Interactive Weather Map New forecast layout! Learn more

10-Day Weather Forecast

Advertisements
Track Severe Weather on mobile